createdAt,value
2018-01-22T00:01:37.950Z,21.87
2018-01-22T00:07:42.238Z,17.83
2018-01-22T00:13:46.383Z,18.83
2018-01-22T00:19:50.978Z,17.17
2018-01-22T00:25:55.423Z,16.73
2018-01-22T00:31:59.882Z,20.60
2018-01-22T00:38:04.113Z,23.87
2018-01-22T00:44:08.938Z,23.47
2018-01-22T00:50:13.734Z,25.67
2018-01-22T00:56:17.825Z,27.23
2018-01-22T01:02:22.768Z,25.73
2018-01-22T01:08:26.840Z,20.57
2018-01-22T01:14:31.483Z,21.43
2018-01-22T01:20:35.937Z,20.23
2018-01-22T01:26:40.592Z,28.63
2018-01-22T01:32:44.923Z,20.17
2018-01-22T01:38:49.171Z,17.33
2018-01-22T01:44:53.129Z,19.73
2018-01-22T01:50:57.150Z,15.07
2018-01-22T01:57:01.413Z,21.03
2018-01-22T02:03:05.890Z,20.67
2018-01-22T02:09:10.135Z,19.93
2018-01-22T02:15:14.426Z,14.47
2018-01-22T02:21:19.760Z,13.07
2018-01-22T02:27:23.803Z,10.37
2018-01-22T02:33:27.882Z,10.60
2018-01-22T02:39:32.981Z,11.80
2018-01-22T02:45:37.357Z,11.27
2018-01-22T02:51:41.567Z,12.33
2018-01-22T02:57:45.767Z,15.73
2018-01-22T03:03:50.031Z,13.60
2018-01-22T03:09:54.132Z,13.83
2018-01-22T03:15:58.369Z,16.40
2018-01-22T03:22:02.651Z,20.27
2018-01-22T03:28:07.114Z,20.77
2018-01-22T03:34:11.143Z,22.90
2018-01-22T03:40:15.354Z,34.13
2018-01-22T03:46:19.489Z,30.83
2018-01-22T03:52:23.654Z,29.07
2018-01-22T03:58:27.955Z,31.17
2018-01-22T04:04:32.085Z,48.93
2018-01-22T04:10:36.263Z,42.00
2018-01-22T04:16:40.683Z,48.83
2018-01-22T04:22:45.858Z,37.27
2018-01-22T04:28:50.561Z,43.93
2018-01-22T04:34:54.522Z,40.13
2018-01-22T04:40:59.529Z,37.90
2018-01-22T04:47:03.707Z,34.30
2018-01-22T04:53:08.068Z,51.27
2018-01-22T04:59:12.649Z,43.10
2018-01-22T05:05:16.683Z,48.33
2018-01-22T05:11:20.806Z,33.50
2018-01-22T05:17:24.949Z,29.23
2018-01-22T05:23:29.166Z,27.37
2018-01-22T05:29:33.714Z,29.90
2018-01-22T05:35:38.318Z,30.30
2018-01-22T05:41:42.963Z,31.30
2018-01-22T05:47:48.643Z,41.87
2018-01-22T05:53:53.391Z,46.93
2018-01-22T05:59:59.075Z,45.27
2018-01-22T06:06:03.713Z,39.23
2018-01-22T06:12:08.463Z,47.57
2018-01-22T06:18:13.573Z,69.10
2018-01-22T06:24:18.275Z,64.03
2018-01-22T06:30:23.560Z,50.93
2018-01-22T06:36:28.046Z,39.50
2018-01-22T06:42:32.157Z,48.90
2018-01-22T06:48:36.661Z,86.93
2018-01-22T06:54:40.883Z,98.73
2018-01-22T07:00:44.986Z,98.83
2018-01-22T07:06:49.436Z,133.53
2018-01-22T07:12:53.725Z,146.30
2018-01-22T07:18:57.947Z,147.60
2018-01-22T07:25:02.026Z,147.07
2018-01-22T07:31:06.217Z,144.07
2018-01-22T07:37:10.410Z,103.97
2018-01-22T07:43:15.450Z,47.47
2018-01-22T07:49:20.954Z,44.93
2018-01-22T12:35:32.608Z,20.00
2018-01-22T12:54:38.872Z,20.50
2018-01-22T13:00:44.351Z,12.40
2018-01-22T13:06:52.665Z,9.20
2018-01-22T13:25:58.289Z,26.30
2018-01-22T13:32:03.654Z,41.27
2018-01-22T13:38:10.019Z,26.10
2018-01-22T13:44:15.357Z,37.83
2018-01-22T13:50:20.536Z,38.27
2018-01-22T13:56:25.940Z,32.23
2018-01-22T14:02:31.485Z,33.33
2018-01-22T14:08:36.783Z,33.07
2018-01-22T14:14:42.227Z,37.00
2018-01-22T14:20:47.537Z,28.77
2018-01-22T14:26:53.485Z,46.23
2018-01-22T14:32:58.523Z,48.07
2018-01-22T14:39:03.910Z,42.30
2018-01-22T14:45:09.310Z,33.40
2018-01-22T14:51:14.309Z,27.47
2018-01-22T14:57:19.473Z,27.07
2018-01-22T15:03:26.486Z,22.20
2018-01-22T15:09:32.457Z,34.57
2018-01-22T15:15:37.648Z,40.20
2018-01-22T15:21:42.650Z,37.37
2018-01-22T15:27:47.778Z,29.47
2018-01-22T15:33:53.320Z,25.20
2018-01-22T15:39:58.894Z,20.57
2018-01-22T15:46:04.153Z,44.03
2018-01-22T15:52:09.766Z,25.47
2018-01-22T15:58:14.830Z,50.23
2018-01-22T16:04:19.923Z,43.37
2018-01-22T16:10:24.934Z,42.37
2018-01-22T16:16:30.198Z,41.77
2018-01-22T16:22:35.504Z,51.33
2018-01-22T16:28:41.102Z,39.20
2018-01-22T16:34:46.265Z,36.77
2018-01-22T16:40:51.608Z,31.07
2018-01-22T16:47:02.718Z,30.30
2018-01-22T16:53:07.810Z,35.47
2018-01-22T16:59:13.077Z,32.93
2018-01-22T17:05:18.138Z,28.67
2018-01-22T17:11:23.495Z,25.10
2018-01-22T17:17:28.571Z,32.33
2018-01-22T17:23:33.665Z,40.00
2018-01-22T17:29:39.251Z,42.63
2018-01-22T17:35:44.503Z,37.93
2018-01-22T17:41:50.093Z,37.33
2018-01-22T17:47:55.260Z,43.73
2018-01-22T17:54:00.564Z,40.00
2018-01-22T18:00:05.604Z,36.70
2018-01-22T18:06:11.351Z,36.27
2018-01-22T18:12:16.538Z,38.00
2018-01-22T18:18:21.624Z,32.40
2018-01-22T18:24:27.087Z,36.17
2018-01-22T18:30:32.170Z,25.43
2018-01-22T18:36:37.768Z,18.90
2018-01-22T18:42:42.900Z,16.47
2018-01-22T18:48:48.117Z,23.63
2018-01-22T18:54:53.209Z,30.83
2018-01-22T19:00:58.390Z,13.67
2018-01-22T19:07:03.529Z,13.27
2018-01-22T19:13:09.376Z,15.80
2018-01-22T19:19:14.750Z,12.97
2018-01-22T19:25:19.824Z,15.67
2018-01-22T19:31:25.055Z,24.33
2018-01-22T19:37:30.385Z,13.17
2018-01-22T19:43:36.021Z,11.60
2018-01-22T19:49:41.085Z,7.87
2018-01-22T19:55:46.482Z,9.47
2018-01-22T20:01:51.763Z,12.73
2018-01-22T20:07:56.878Z,9.50
2018-01-22T20:14:02.168Z,16.53
2018-01-22T20:20:07.465Z,30.47
2018-01-22T20:26:12.490Z,35.27
2018-01-22T20:32:17.535Z,40.27
2018-01-22T20:38:22.612Z,20.60
2018-01-22T20:44:27.874Z,33.73
2018-01-22T20:50:32.965Z,26.33
2018-01-22T20:56:38.231Z,18.53
2018-01-22T21:02:43.432Z,16.40
2018-01-22T21:08:48.899Z,28.00
2018-01-22T21:14:54.010Z,78.13
2018-01-22T21:20:59.109Z,78.90
2018-01-22T21:27:04.184Z,67.87
2018-01-22T21:33:09.313Z,103.13
2018-01-22T21:39:14.418Z,53.00
2018-01-22T21:45:19.628Z,43.13
2018-01-22T21:51:24.784Z,34.33
2018-01-22T21:57:30.123Z,29.00
2018-01-22T22:03:35.409Z,40.20
2018-01-22T22:09:40.489Z,49.33
2018-01-22T22:15:45.526Z,54.30
2018-01-22T22:21:50.779Z,21.60
2018-01-22T22:27:56.046Z,33.07
2018-01-22T22:34:01.169Z,28.47
2018-01-22T22:40:06.396Z,20.13
2018-01-22T22:46:11.559Z,20.67
2018-01-22T22:52:16.778Z,14.97
2018-01-22T22:58:21.873Z,14.97
2018-01-22T23:04:27.115Z,13.37
2018-01-22T23:10:32.700Z,14.00
2018-01-22T23:16:38.235Z,11.77
2018-01-22T23:22:43.602Z,8.17
2018-01-22T23:28:48.873Z,6.80
2018-01-22T23:34:53.865Z,4.60
2018-01-22T23:40:58.946Z,4.00
2018-01-22T23:47:04.348Z,2.67
2018-01-22T23:53:09.579Z,1.90
2018-01-22T23:59:15.007Z,1.77
